N124MC KCXY-KUNV
Flight info
| Callsign | N124MC |
|---|---|
| Flight time | 0h 23m |
| Altitude | 4500 |
| Route | VFR |
| Aircraft | M20P/L-VGD/C |
Departure
| Time | 2026-05-04 19:24 |
|---|---|
| Airport | Capital City Airport (KCXY) |
Arrival
| Time | 2026-05-04 19:47 |
|---|---|
| Airport | State College Regional Airport (KUNV) |
| Time | Latitude | Longitude | Altitude | Speed | Heading |
|---|---|---|---|---|---|
| 2026-05-04 19:17 | 40.22066 | -76.85158 | 339 ft | 0 kts | 262° |
| 2026-05-04 19:20 | 40.22044 | -76.85140 | 343 ft | 10 kts | 138° |
| 2026-05-04 19:21 | 40.21995 | -76.85045 | 347 ft | 15 kts | 105° |
| 2026-05-04 19:21 | 40.21934 | -76.84977 | 346 ft | 13 kts | 127° |
| 2026-05-04 19:21 | 40.21944 | -76.84837 | 354 ft | 21 kts | 78° |
| 2026-05-04 19:21 | 40.21978 | -76.84632 | 347 ft | 17 kts | 79° |
| 2026-05-04 19:22 | 40.22016 | -76.84481 | 352 ft | 19 kts | 70° |
| 2026-05-04 19:22 | 40.22062 | -76.84319 | 349 ft | 11 kts | 74° |
| 2026-05-04 19:22 | 40.22070 | -76.84275 | 346 ft | 2 kts | 88° |
| 2026-05-04 19:22 | 40.22040 | -76.84188 | 351 ft | 14 kts | 140° |
| 2026-05-04 19:23 | 40.21969 | -76.84280 | 353 ft | 32 kts | 253° |
| 2026-05-04 19:23 | 40.21853 | -76.84737 | 376 ft | 67 kts | 248° |
| 2026-05-04 19:23 | 40.21699 | -76.85338 | 590 ft | 74 kts | 244° |
| 2026-05-04 19:23 | 40.21550 | -76.86137 | 654 ft | 108 kts | 271° |
| 2026-05-04 19:24 | 40.22031 | -76.86973 | 940 ft | 121 kts | 316° |
| 2026-05-04 19:24 | 40.22597 | -76.87753 | 1277 ft | 115 kts | 303° |
| 2026-05-04 19:24 | 40.23080 | -76.88506 | 1670 ft | 105 kts | 298° |
| 2026-05-04 19:24 | 40.23561 | -76.89262 | 2011 ft | 113 kts | 300° |
| 2026-05-04 19:25 | 40.24105 | -76.90103 | 2392 ft | 129 kts | 300° |
| 2026-05-04 19:25 | 40.24717 | -76.91036 | 2724 ft | 135 kts | 302° |
| 2026-05-04 19:25 | 40.25333 | -76.91972 | 3109 ft | 141 kts | 301° |
| 2026-05-04 19:25 | 40.25983 | -76.92968 | 3472 ft | 143 kts | 302° |
| 2026-05-04 19:26 | 40.26637 | -76.93961 | 3778 ft | 140 kts | 301° |
| 2026-05-04 19:26 | 40.27260 | -76.94917 | 4149 ft | 139 kts | 301° |
| 2026-05-04 19:26 | 40.27873 | -76.95853 | 4461 ft | 130 kts | 303° |
| 2026-05-04 19:26 | 40.28487 | -76.96807 | 4496 ft | 144 kts | 303° |
| 2026-05-04 19:27 | 40.29165 | -76.97855 | 4491 ft | 159 kts | 302° |
| 2026-05-04 19:27 | 40.29898 | -76.98977 | 4508 ft | 166 kts | 304° |
| 2026-05-04 19:27 | 40.30655 | -77.00133 | 4508 ft | 168 kts | 304° |
| 2026-05-04 19:27 | 40.31409 | -77.01289 | 4514 ft | 166 kts | 304° |
| 2026-05-04 19:28 | 40.32159 | -77.02438 | 4504 ft | 165 kts | 303° |
| 2026-05-04 19:28 | 40.32911 | -77.03603 | 4516 ft | 172 kts | 303° |
| 2026-05-04 19:28 | 40.33693 | -77.04807 | 4501 ft | 174 kts | 304° |
| 2026-05-04 19:28 | 40.34484 | -77.06011 | 4502 ft | 174 kts | 305° |
| 2026-05-04 19:29 | 40.35264 | -77.07213 | 4500 ft | 173 kts | 304° |
| 2026-05-04 19:29 | 40.36050 | -77.08431 | 4490 ft | 177 kts | 304° |
| 2026-05-04 19:29 | 40.36843 | -77.09648 | 4495 ft | 175 kts | 304° |
| 2026-05-04 19:29 | 40.37633 | -77.10866 | 4501 ft | 176 kts | 304° |
| 2026-05-04 19:30 | 40.38438 | -77.12110 | 4492 ft | 179 kts | 304° |
| 2026-05-04 19:30 | 40.39242 | -77.13346 | 4484 ft | 179 kts | 304° |
| 2026-05-04 19:30 | 40.40043 | -77.14584 | 4521 ft | 178 kts | 304° |
| 2026-05-04 19:30 | 40.40866 | -77.15861 | 4477 ft | 187 kts | 305° |
| 2026-05-04 19:31 | 40.41693 | -77.17129 | 4497 ft | 180 kts | 305° |
| 2026-05-04 19:31 | 40.42496 | -77.18371 | 4502 ft | 179 kts | 305° |
| 2026-05-04 19:31 | 40.43293 | -77.19611 | 4488 ft | 176 kts | 304° |
| 2026-05-04 19:31 | 40.44087 | -77.20828 | 4492 ft | 175 kts | 304° |
| 2026-05-04 19:32 | 40.44873 | -77.22046 | 4487 ft | 174 kts | 303° |
| 2026-05-04 19:32 | 40.45655 | -77.23255 | 4489 ft | 173 kts | 303° |
| 2026-05-04 19:32 | 40.46436 | -77.24469 | 4484 ft | 175 kts | 303° |
| 2026-05-04 19:32 | 40.47220 | -77.25682 | 4502 ft | 175 kts | 303° |
| 2026-05-04 19:33 | 40.48020 | -77.26919 | 4481 ft | 177 kts | 304° |
| 2026-05-04 19:33 | 40.48816 | -77.28149 | 4474 ft | 176 kts | 304° |
| 2026-05-04 19:33 | 40.49595 | -77.29357 | 4488 ft | 172 kts | 303° |
| 2026-05-04 19:33 | 40.50379 | -77.30579 | 4497 ft | 178 kts | 303° |
| 2026-05-04 19:34 | 40.51189 | -77.31836 | 4475 ft | 179 kts | 304° |
| 2026-05-04 19:34 | 40.51987 | -77.33069 | 4469 ft | 175 kts | 303° |
| 2026-05-04 19:34 | 40.52767 | -77.34284 | 4469 ft | 178 kts | 303° |
| 2026-05-04 19:34 | 40.53561 | -77.35521 | 4475 ft | 176 kts | 303° |
| 2026-05-04 19:35 | 40.54372 | -77.36780 | 4481 ft | 180 kts | 304° |
| 2026-05-04 19:35 | 40.55175 | -77.38031 | 4464 ft | 182 kts | 304° |
| 2026-05-04 19:35 | 40.55993 | -77.39299 | 4483 ft | 181 kts | 304° |
| 2026-05-04 19:35 | 40.56818 | -77.40584 | 4475 ft | 186 kts | 304° |
| 2026-05-04 19:36 | 40.57650 | -77.41880 | 4469 ft | 186 kts | 304° |
| 2026-05-04 19:36 | 40.58480 | -77.43168 | 4456 ft | 184 kts | 304° |
| 2026-05-04 19:36 | 40.59296 | -77.44441 | 4460 ft | 182 kts | 303° |
| 2026-05-04 19:36 | 40.60104 | -77.45702 | 4458 ft | 179 kts | 303° |
| 2026-05-04 19:37 | 40.60906 | -77.46950 | 4471 ft | 176 kts | 303° |
| 2026-05-04 19:37 | 40.61695 | -77.48184 | 4466 ft | 178 kts | 303° |
| 2026-05-04 19:37 | 40.62495 | -77.49424 | 4449 ft | 176 kts | 303° |
| 2026-05-04 19:37 | 40.63274 | -77.50646 | 4449 ft | 173 kts | 303° |
| 2026-05-04 19:38 | 40.64046 | -77.51855 | 4449 ft | 172 kts | 303° |
| 2026-05-04 19:38 | 40.64824 | -77.53071 | 4446 ft | 176 kts | 303° |
| 2026-05-04 19:38 | 40.65613 | -77.54303 | 4448 ft | 176 kts | 303° |
| 2026-05-04 19:38 | 40.66404 | -77.55542 | 4453 ft | 177 kts | 303° |
| 2026-05-04 19:39 | 40.67207 | -77.56798 | 4452 ft | 179 kts | 304° |
| 2026-05-04 19:39 | 40.68004 | -77.58040 | 4444 ft | 176 kts | 304° |
| 2026-05-04 19:39 | 40.68788 | -77.59267 | 4449 ft | 174 kts | 303° |
| 2026-05-04 19:39 | 40.69565 | -77.60486 | 4445 ft | 173 kts | 303° |
| 2026-05-04 19:40 | 40.70354 | -77.61731 | 4244 ft | 176 kts | 304° |
| 2026-05-04 19:40 | 40.71119 | -77.62912 | 4047 ft | 162 kts | 302° |
| 2026-05-04 19:40 | 40.71814 | -77.63999 | 3908 ft | 149 kts | 302° |
| 2026-05-04 19:40 | 40.72481 | -77.65051 | 3721 ft | 147 kts | 302° |
| 2026-05-04 19:41 | 40.73118 | -77.66053 | 3594 ft | 141 kts | 301° |
| 2026-05-04 19:41 | 40.73761 | -77.67071 | 3468 ft | 150 kts | 301° |
| 2026-05-04 19:41 | 40.74448 | -77.68157 | 3360 ft | 158 kts | 302° |
| 2026-05-04 19:41 | 40.75164 | -77.69274 | 3242 ft | 159 kts | 303° |
| 2026-05-04 19:42 | 40.75880 | -77.70399 | 3131 ft | 163 kts | 303° |
| 2026-05-04 19:42 | 40.76622 | -77.71573 | 3027 ft | 171 kts | 302° |
| 2026-05-04 19:42 | 40.77317 | -77.72833 | 2945 ft | 168 kts | 288° |
| 2026-05-04 19:42 | 40.77672 | -77.74280 | 2804 ft | 165 kts | 280° |
| 2026-05-04 19:43 | 40.77979 | -77.75732 | 2684 ft | 164 kts | 280° |
| 2026-05-04 19:43 | 40.78284 | -77.77171 | 2559 ft | 163 kts | 280° |
| 2026-05-04 19:43 | 40.78590 | -77.78607 | 2456 ft | 164 kts | 280° |
| 2026-05-04 19:43 | 40.78928 | -77.79972 | 2304 ft | 151 kts | 288° |
| 2026-05-04 19:44 | 40.79485 | -77.81106 | 2175 ft | 143 kts | 306° |
| 2026-05-04 19:44 | 40.80222 | -77.81875 | 2140 ft | 127 kts | 323° |
| 2026-05-04 19:44 | 40.80939 | -77.82369 | 2190 ft | 110 kts | 322° |
| 2026-05-04 19:44 | 40.81650 | -77.82782 | 2178 ft | 112 kts | 329° |
| 2026-05-04 19:45 | 40.82350 | -77.83180 | 2164 ft | 110 kts | 326° |
| 2026-05-04 19:45 | 40.83078 | -77.83508 | 2115 ft | 113 kts | 340° |
| 2026-05-04 19:45 | 40.83846 | -77.83284 | 2238 ft | 121 kts | 32° |
| 2026-05-04 19:45 | 40.84476 | -77.82483 | 2199 ft | 128 kts | 43° |
| 2026-05-04 19:46 | 40.85145 | -77.81695 | 2031 ft | 124 kts | 28° |
| 2026-05-04 19:46 | 40.85895 | -77.81654 | 1759 ft | 106 kts | 318° |
| 2026-05-04 19:46 | 40.86342 | -77.82256 | 1532 ft | 88 kts | 264° |
| 2026-05-04 19:46 | 40.86091 | -77.82883 | 1449 ft | 77 kts | 230° |
| 2026-05-04 19:47 | 40.85775 | -77.83425 | 1322 ft | 74 kts | 234° |
| 2026-05-04 19:47 | 40.85476 | -77.83944 | 1217 ft | 66 kts | 230° |
| 2026-05-04 19:47 | 40.85245 | -77.84339 | 1216 ft | 45 kts | 233° |
| 2026-05-04 19:47 | 40.85081 | -77.84611 | 1221 ft | 22 kts | 236° |
| 2026-05-04 19:48 | 40.85114 | -77.84753 | 1223 ft | 15 kts | 322° |
| 2026-05-04 19:48 | 40.85193 | -77.84832 | 1224 ft | 14 kts | 324° |
| 2026-05-04 19:48 | 40.85271 | -77.84886 | 1224 ft | 12 kts | 356° |
| 2026-05-04 19:48 | 40.85313 | -77.84872 | 1224 ft | 0 kts | 58° |